Time;durP1;ratioP1;P1;durP2;ratioP2;P2;SDS_P1;SDS_P2;PMS_P1;PMS_P2;Temp;Humidity;BMP_temperature;BMP_pressure;BME280_temperature;BME280_humidity;BME280_pressure;Samples;Min_cycle;Max_cycle;Signal;HPM_P1;HPM_P2
2023/08/22 00:00:19;;;;;;;4.10;3.70;;;21.00;99.90;;;;;;5082765;28;20463;-76
2023/08/22 00:02:46;;;;;;;4.83;3.13;;;21.00;99.90;;;;;;5080409;28;20569;-76
2023/08/22 00:05:13;;;;;;;4.00;2.90;;;20.90;99.90;;;;;;5086711;28;20471;-76
2023/08/22 00:07:40;;;;;;;9.00;2.80;;;20.80;99.90;;;;;;5086156;28;20496;-77
2023/08/22 00:10:10;;;;;;;3.40;3.20;;;20.80;99.90;;;;;;5081021;28;20977;-76
2023/08/22 00:12:37;;;;;;;2.97;2.67;;;20.90;99.90;;;;;;5079620;28;20457;-76
2023/08/22 00:15:08;;;;;;;3.53;2.97;;;20.80;99.90;;;;;;5076096;28;20504;-78
2023/08/22 00:17:35;;;;;;;5.63;3.80;;;20.70;99.90;;;;;;5090692;28;20443;-77
2023/08/22 00:20:04;;;;;;;3.73;3.53;;;20.70;99.90;;;;;;5079404;28;20460;-76
2023/08/22 00:22:31;;;;;;;3.47;3.17;;;20.60;99.90;;;;;;5087708;28;21016;-80
2023/08/22 00:24:58;;;;;;;5.70;3.40;;;20.60;99.90;;;;;;5080456;28;20448;-79
2023/08/22 00:27:26;;;;;;;4.93;3.50;;;20.60;99.90;;;;;;5077992;28;20447;-76
2023/08/22 00:29:53;;;;;;;4.90;4.40;;;20.50;99.90;;;;;;5079792;28;20516;-76
2023/08/22 00:32:20;;;;;;;3.70;3.43;;;20.40;99.90;;;;;;5087384;28;20994;-77
2023/08/22 00:34:47;;;;;;;4.70;3.73;;;20.40;99.90;;;;;;5086290;28;20463;-77
2023/08/22 00:37:14;;;;;;;8.93;4.80;;;20.30;99.90;;;;;;5078635;28;20494;-77
2023/08/22 00:39:41;;;;;;;4.93;4.40;;;20.30;99.90;;;;;;5081578;28;20467;-81
2023/08/22 00:42:08;;;;;;;3.83;3.53;;;20.20;99.90;;;;;;5079897;28;21208;-76
2023/08/22 00:44:36;;;;;;;6.03;5.00;;;20.00;99.90;;;;;;5075998;28;20517;-78
2023/08/22 00:47:04;;;;;;;6.30;4.27;;;20.00;99.90;;;;;;5086934;28;20463;-78
2023/08/22 00:49:32;;;;;;;4.80;3.30;;;20.00;99.90;;;;;;5076620;28;20822;-77
2023/08/22 00:52:00;;;;;;;5.03;3.80;;;19.90;99.90;;;;;;5086982;28;20626;-76
2023/08/22 00:54:29;;;;;;;5.67;3.90;;;19.80;99.90;;;;;;5075951;28;20486;-78
2023/08/22 00:56:57;;;;;;;9.13;4.20;;;19.80;99.90;;;;;;5078268;28;20513;-76
2023/08/22 00:59:25;;;;;;;4.10;3.70;;;19.80;99.90;;;;;;5088083;28;20493;-79
2023/08/22 01:01:54;;;;;;;6.50;4.50;;;19.80;99.90;;;;;;5083212;28;20482;-76
2023/08/22 01:04:21;;;;;;;3.00;2.80;;;20.00;99.90;;;;;;5083130;28;20533;-77
2023/08/22 01:06:51;;;;;;;5.80;4.33;;;20.10;99.90;;;;;;5082853;28;20454;-77
2023/08/22 01:09:26;;;;;;;6.13;4.40;;;20.10;99.90;;;;;;5083890;28;20544;-77
2023/08/22 01:11:58;;;;;;;4.17;3.77;;;20.10;99.90;;;;;;5080269;28;20576;-80
2023/08/22 01:14:30;;;;;;;5.47;3.57;;;20.00;99.90;;;;;;5081637;28;20996;-78
2023/08/22 01:16:59;;;;;;;2.77;2.57;;;20.00;99.90;;;;;;5080465;28;21288;-76
2023/08/22 01:19:26;;;;;;;4.13;3.73;;;19.90;99.90;;;;;;5087784;28;20445;-79
2023/08/22 01:21:54;;;;;;;4.27;2.77;;;19.80;99.90;;;;;;5081707;28;20492;-77
2023/08/22 01:24:22;;;;;;;4.73;3.40;;;19.70;99.90;;;;;;5086389;28;20812;-76
2023/08/22 01:26:49;;;;;;;3.50;3.30;;;19.80;99.90;;;;;;5083876;28;21124;-76
2023/08/22 01:29:35;;;;;;;6.70;4.60;;;19.80;99.90;;;;;;5084058;28;20504;-76
2023/08/22 01:32:10;;;;;;;4.73;3.30;;;19.80;99.90;;;;;;5075910;28;20514;-76
2023/08/22 01:34:40;;;;;;;4.33;3.90;;;19.80;99.90;;;;;;5077747;28;20464;-76
2023/08/22 01:37:10;;;;;;;3.23;2.93;;;19.70;99.90;;;;;;5085999;28;20511;-76
2023/08/22 01:39:39;;;;;;;9.03;4.07;;;19.80;99.90;;;;;;5082296;28;20463;-77
2023/08/22 01:42:07;;;;;;;7.13;5.30;;;19.80;99.90;;;;;;5086711;28;20511;-75
2023/08/22 01:44:37;;;;;;;2.70;2.50;;;19.70;99.90;;;;;;5076215;28;20525;-78
2023/08/22 01:47:04;;;;;;;3.83;3.53;;;19.80;99.90;;;;;;5079339;28;20435;-77
2023/08/22 01:49:35;;;;;;;3.90;3.47;;;19.70;99.90;;;;;;5086947;28;20800;-77
2023/08/22 01:52:02;;;;;;;5.00;3.10;;;19.70;99.90;;;;;;5075317;28;20563;-81
2023/08/22 01:54:30;;;;;;;8.63;3.30;;;19.70;99.90;;;;;;5085362;28;20445;-77
2023/08/22 01:56:57;;;;;;;4.83;4.40;;;19.70;99.90;;;;;;5080753;28;20446;-77
2023/08/22 01:59:24;;;;;;;2.43;2.33;;;19.70;99.90;;;;;;5085270;28;20514;-78
2023/08/22 02:01:51;;;;;;;4.07;3.57;;;19.60;99.90;;;;;;5087408;28;20510;-76
2023/08/22 02:04:18;;;;;;;3.57;3.27;;;19.60;99.90;;;;;;5084915;28;20469;-78
2023/08/22 02:06:46;;;;;;;4.90;3.63;;;19.60;99.90;;;;;;5076053;28;20545;-79
2023/08/22 02:09:13;;;;;;;2.60;2.40;;;19.60;99.90;;;;;;5086628;28;20463;-76
2023/08/22 02:11:42;;;;;;;3.23;2.97;;;19.60;99.90;;;;;;5077192;28;20486;-77
2023/08/22 02:14:10;;;;;;;3.57;3.37;;;19.60;99.90;;;;;;5076947;28;20849;-78
2023/08/22 02:16:37;;;;;;;3.67;3.27;;;19.60;99.90;;;;;;5082720;28;20447;-78
2023/08/22 02:19:03;;;;;;;2.63;2.43;;;19.60;99.90;;;;;;5086722;28;20453;-75
2023/08/22 02:21:30;;;;;;;3.27;3.00;;;19.70;99.90;;;;;;5087178;28;20926;-77
2023/08/22 02:23:57;;;;;;;4.50;2.80;;;19.70;99.90;;;;;;5083687;28;20554;-76
2023/08/22 02:26:26;;;;;;;4.17;3.20;;;19.70;99.90;;;;;;5080416;28;20447;-76
2023/08/22 02:28:54;;;;;;;4.17;3.40;;;19.70;99.90;;;;;;5072751;28;20477;-79
2023/08/22 02:31:21;;;;;;;5.70;3.50;;;19.70;99.90;;;;;;5086864;28;20540;-77
2023/08/22 02:33:48;;;;;;;2.80;2.57;;;19.70;99.90;;;;;;5085140;28;20534;-79
2023/08/22 02:36:15;;;;;;;3.87;3.20;;;19.80;99.90;;;;;;5080302;28;20833;-77
2023/08/22 02:38:42;;;;;;;5.40;2.93;;;19.70;99.90;;;;;;5080802;28;20511;-76
2023/08/22 02:41:09;;;;;;;3.77;2.97;;;19.70;99.90;;;;;;5079872;28;20444;-76
2023/08/22 02:43:36;;;;;;;3.67;3.20;;;19.60;99.90;;;;;;5079515;28;20491;-79
2023/08/22 02:46:04;;;;;;;4.20;3.07;;;19.60;99.90;;;;;;5074670;28;20547;-76
2023/08/22 02:48:31;;;;;;;3.93;3.07;;;19.50;99.90;;;;;;5086876;28;20450;-77
2023/08/22 02:50:58;;;;;;;5.30;4.00;;;19.50;99.90;;;;;;5081560;28;20492;-80
2023/08/22 02:53:25;;;;;;;2.40;2.23;;;19.40;99.90;;;;;;5086609;28;20499;-76
2023/08/22 02:55:52;;;;;;;5.87;4.57;;;19.40;99.90;;;;;;5073408;28;20465;-76
2023/08/22 02:58:19;;;;;;;4.10;3.70;;;19.30;99.90;;;;;;5086129;28;20454;-80
2023/08/22 03:00:47;;;;;;;3.37;3.07;;;19.20;99.90;;;;;;5073855;28;22366;-76
2023/08/22 03:03:15;;;;;;;3.30;3.10;;;19.20;99.90;;;;;;5078719;28;20461;-80
2023/08/22 03:05:42;;;;;;;3.47;3.13;;;19.10;99.90;;;;;;5069638;28;20660;-77
2023/08/22 03:08:09;;;;;;;4.20;3.50;;;19.00;99.90;;;;;;5085450;28;20531;-76
2023/08/22 03:10:36;;;;;;;4.53;3.97;;;19.00;99.90;;;;;;5086367;28;20481;-76
2023/08/22 03:13:03;;;;;;;5.00;4.50;;;19.00;99.90;;;;;;5073036;28;20460;-77
2023/08/22 03:15:30;;;;;;;3.53;3.20;;;19.10;99.90;;;;;;5083251;28;20469;-77
2023/08/22 03:17:57;;;;;;;4.53;4.13;;;19.10;99.90;;;;;;5087972;28;20442;-77
2023/08/22 03:20:25;;;;;;;4.50;2.97;;;19.20;99.90;;;;;;5086835;28;20467;-78
2023/08/22 03:22:52;;;;;;;3.33;3.03;;;19.00;99.90;;;;;;5085851;28;20462;-76
2023/08/22 03:25:19;;;;;;;4.17;3.77;;;18.90;99.90;;;;;;5081762;28;20890;-81
2023/08/22 03:27:46;;;;;;;4.40;3.47;;;19.00;99.90;;;;;;5075022;28;20480;-78
2023/08/22 03:30:13;;;;;;;5.83;3.90;;;18.90;99.90;;;;;;5087735;28;20533;-77
2023/08/22 03:32:40;;;;;;;4.40;4.10;;;18.80;99.90;;;;;;5079169;28;20494;-80
2023/08/22 03:35:08;;;;;;;3.50;3.20;;;18.70;99.90;;;;;;5073344;28;21522;-78
2023/08/22 03:37:37;;;;;;;3.63;3.33;;;18.60;99.90;;;;;;5081299;28;20509;-77
2023/08/22 03:40:05;;;;;;;3.60;3.30;;;18.50;99.90;;;;;;5085795;28;20519;-80
2023/08/22 03:42:32;;;;;;;4.00;3.60;;;18.50;99.90;;;;;;5084538;28;20476;-76
2023/08/22 03:44:59;;;;;;;2.90;2.80;;;18.50;99.90;;;;;;5081052;28;20525;-78
2023/08/22 03:47:26;;;;;;;5.87;3.57;;;18.50;99.90;;;;;;5082022;28;21055;-76
2023/08/22 03:49:53;;;;;;;7.23;3.33;;;18.50;99.90;;;;;;5086119;28;20530;-77
2023/08/22 03:52:19;;;;;;;3.83;3.53;;;18.60;99.90;;;;;;5078612;28;20575;-79
2023/08/22 03:54:48;;;;;;;3.00;2.70;;;18.60;99.90;;;;;;5088975;28;20443;-76
2023/08/22 03:57:15;;;;;;;3.77;3.47;;;18.60;99.90;;;;;;5085947;28;20547;-76
2023/08/22 03:59:42;;;;;;;7.87;3.50;;;18.60;99.90;;;;;;5088179;28;20507;-79
2023/08/22 04:02:09;;;;;;;5.03;4.50;;;18.60;99.90;;;;;;5076198;28;21071;-77
2023/08/22 04:04:35;;;;;;;4.80;3.23;;;18.60;99.90;;;;;;5075256;28;20477;-77
2023/08/22 04:07:02;;;;;;;3.87;3.53;;;18.70;99.90;;;;;;5073877;28;20521;-77
2023/08/22 04:09:29;;;;;;;10.23;3.97;;;18.60;99.90;;;;;;5080044;28;20533;-78
2023/08/22 04:12:00;;;;;;;4.23;3.80;;;18.70;99.90;;;;;;5072408;28;20548;-82
2023/08/22 04:14:27;;;;;;;4.77;3.20;;;18.50;99.90;;;;;;5075449;28;20493;-78
2023/08/22 04:16:54;;;;;;;5.00;4.07;;;18.40;99.90;;;;;;5082932;28;21249;-77
2023/08/22 04:19:21;;;;;;;5.20;4.70;;;18.50;99.90;;;;;;5074670;28;20637;-80
2023/08/22 04:21:48;;;;;;;4.20;3.80;;;18.50;99.90;;;;;;5074135;28;20523;-77
2023/08/22 04:24:15;;;;;;;3.87;3.27;;;18.60;99.90;;;;;;5079212;28;20891;-78
2023/08/22 04:26:42;;;;;;;4.50;3.87;;;18.70;99.90;;;;;;5073549;28;20527;-78
2023/08/22 04:29:10;;;;;;;3.17;2.97;;;18.70;99.90;;;;;;5085887;28;20447;-79
2023/08/22 04:31:37;;;;;;;6.07;3.90;;;18.90;99.90;;;;;;5075621;28;20539;-79
2023/08/22 04:34:04;;;;;;;6.27;4.53;;;18.90;99.90;;;;;;5073179;28;20468;-79
2023/08/22 04:36:31;;;;;;;5.17;4.40;;;19.00;99.90;;;;;;5073882;28;20887;-78
2023/08/22 04:38:57;;;;;;;4.93;4.40;;;19.00;99.90;;;;;;5076010;28;20462;-78
2023/08/22 04:41:24;;;;;;;5.33;4.60;;;19.00;99.90;;;;;;5073076;28;20495;-81
2023/08/22 04:43:51;;;;;;;3.93;3.40;;;19.10;99.90;;;;;;5068563;28;20456;-82
2023/08/22 04:46:20;;;;;;;4.73;4.33;;;19.10;99.90;;;;;;5081712;28;20754;-80
2023/08/22 04:48:47;;;;;;;5.13;3.80;;;19.20;99.90;;;;;;5081780;28;20608;-79
2023/08/22 04:51:14;;;;;;;4.33;4.00;;;19.30;99.90;;;;;;5088746;28;20454;-78
2023/08/22 04:53:41;;;;;;;4.37;3.97;;;19.20;99.90;;;;;;5085369;28;20448;-77
2023/08/22 04:56:08;;;;;;;3.83;3.53;;;19.20;99.90;;;;;;5079304;28;21234;-78
2023/08/22 04:58:35;;;;;;;3.90;3.60;;;19.10;99.90;;;;;;5088716;28;20520;-78
2023/08/22 05:01:02;;;;;;;10.97;4.77;;;19.10;99.90;;;;;;5087333;28;20881;-79
2023/08/22 05:03:30;;;;;;;4.30;3.90;;;19.30;99.90;;;;;;5086299;28;20450;-81
2023/08/22 05:05:57;;;;;;;3.77;3.40;;;19.40;99.90;;;;;;5081869;28;20550;-76
2023/08/22 05:08:24;;;;;;;12.70;4.40;;;19.60;99.90;;;;;;5076117;28;20899;-77
2023/08/22 05:10:51;;;;;;;5.17;3.17;;;19.70;99.90;;;;;;5082493;28;20473;-77
2023/08/22 05:13:18;;;;;;;5.17;3.57;;;19.80;99.90;;;;;;5087827;28;20618;-76
2023/08/22 05:15:45;;;;;;;3.57;3.37;;;19.90;99.90;;;;;;5083455;28;20462;-76
2023/08/22 05:18:12;;;;;;;5.43;4.90;;;20.00;99.90;;;;;;5082174;28;20529;-77
2023/08/22 05:20:41;;;;;;;4.27;3.87;;;20.10;99.90;;;;;;5081463;28;20483;-76
2023/08/22 05:23:08;;;;;;;7.33;3.93;;;20.20;99.90;;;;;;5087511;28;20474;-77
2023/08/22 05:25:35;;;;;;;6.47;4.20;;;20.20;99.90;;;;;;5087648;28;20478;-78
2023/08/22 05:28:02;;;;;;;4.63;4.10;;;20.30;99.90;;;;;;5074459;28;20469;-75
2023/08/22 05:30:29;;;;;;;4.87;3.57;;;20.30;99.90;;;;;;5085760;28;20490;-77
2023/08/22 05:32:56;;;;;;;4.70;3.50;;;20.30;99.90;;;;;;5082195;28;20574;-77
2023/08/22 05:35:24;;;;;;;7.60;3.90;;;20.30;99.90;;;;;;5087221;28;20467;-79
2023/08/22 05:37:52;;;;;;;3.73;3.33;;;20.40;99.90;;;;;;5082035;28;20468;-77
2023/08/22 05:40:19;;;;;;;4.57;4.30;;;20.60;99.90;;;;;;5077026;28;20451;-76
2023/08/22 05:42:46;;;;;;;5.47;4.50;;;20.70;99.90;;;;;;5081423;28;20447;-79
2023/08/22 05:45:13;;;;;;;4.63;3.40;;;20.80;99.90;;;;;;5075799;28;20494;-77
2023/08/22 05:47:40;;;;;;;9.33;3.67;;;21.00;99.90;;;;;;5067643;28;20561;-78
2023/08/22 05:50:08;;;;;;;3.67;3.37;;;21.20;99.90;;;;;;5077895;28;20439;-77
2023/08/22 05:52:35;;;;;;;6.43;4.57;;;21.40;99.90;;;;;;5072192;28;20547;-77
2023/08/22 05:55:04;;;;;;;4.00;3.80;;;21.60;99.90;;;;;;5071941;28;20525;-76
2023/08/22 05:57:31;;;;;;;6.30;4.97;;;21.90;99.90;;;;;;5076883;28;21505;-78
2023/08/22 05:59:58;;;;;;;5.00;4.60;;;22.00;99.90;;;;;;5073471;28;20516;-77
2023/08/22 06:02:26;;;;;;;5.03;4.60;;;21.90;99.90;;;;;;5071323;28;20530;-78
2023/08/22 06:04:53;;;;;;;8.37;4.77;;;21.90;99.90;;;;;;5067127;28;20480;-77
2023/08/22 06:07:20;;;;;;;8.93;4.30;;;22.00;99.90;;;;;;5070623;28;20494;-77
2023/08/22 06:09:47;;;;;;;15.87;5.73;;;22.20;99.90;;;;;;5075688;28;20443;-76
2023/08/22 06:12:16;;;;;;;9.37;5.90;;;22.20;99.90;;;;;;5073861;28;20584;-78
2023/08/22 06:14:43;;;;;;;7.87;7.17;;;22.60;99.90;;;;;;5083114;28;20440;-76
2023/08/22 06:17:10;;;;;;;6.07;4.60;;;22.70;99.90;;;;;;5078357;28;20933;-78
2023/08/22 06:19:37;;;;;;;5.40;4.90;;;22.80;99.90;;;;;;5073946;28;20451;-77
2023/08/22 06:22:04;;;;;;;6.73;5.97;;;22.80;99.90;;;;;;5065862;28;20857;-78
2023/08/22 06:24:31;;;;;;;6.43;5.77;;;22.80;99.90;;;;;;5070787;28;20497;-79
2023/08/22 06:26:58;;;;;;;6.50;5.90;;;23.00;99.90;;;;;;5075632;28;20522;-77
2023/08/22 06:29:26;;;;;;;7.30;6.70;;;22.80;99.90;;;;;;5069404;28;20955;-77
2023/08/22 06:31:53;;;;;;;8.43;6.43;;;22.60;99.90;;;;;;5069067;28;21002;-76
2023/08/22 06:34:20;;;;;;;7.73;5.80;;;22.70;99.90;;;;;;5069942;28;20444;-78
2023/08/22 06:36:47;;;;;;;7.67;6.33;;;22.50;99.90;;;;;;5070116;28;20460;-78
2023/08/22 06:39:14;;;;;;;6.77;5.80;;;22.50;99.90;;;;;;5074643;28;20496;-78
2023/08/22 06:41:41;;;;;;;7.90;5.53;;;22.40;99.90;;;;;;5073472;28;20478;-77
2023/08/22 06:44:09;;;;;;;12.23;6.00;;;22.40;99.90;;;;;;5066452;28;20464;-80
2023/08/22 06:46:38;;;;;;;11.50;5.73;;;22.70;99.90;;;;;;5068387;28;20443;-80
2023/08/22 06:49:05;;;;;;;10.40;5.10;;;22.80;99.90;;;;;;5084747;28;21236;-78
2023/08/22 06:51:33;;;;;;;6.73;5.20;;;22.70;99.90;;;;;;5086541;28;20484;-77
2023/08/22 06:54:00;;;;;;;11.43;6.10;;;23.00;99.90;;;;;;5086315;28;21109;-78
2023/08/22 06:56:27;;;;;;;6.17;4.80;;;23.20;99.90;;;;;;5084205;28;21050;-79
2023/08/22 06:58:54;;;;;;;7.10;5.73;;;23.30;99.90;;;;;;5082553;28;20463;-78
2023/08/22 07:01:21;;;;;;;8.60;5.27;;;23.30;99.90;;;;;;5078695;28;20543;-77
2023/08/22 07:03:49;;;;;;;7.37;5.00;;;23.60;99.90;;;;;;5081924;28;20525;-80
2023/08/22 07:06:16;;;;;;;5.30;4.80;;;23.70;99.90;;;;;;5075921;28;20517;-77
2023/08/22 07:08:43;;;;;;;10.20;6.60;;;23.60;99.90;;;;;;5079022;28;20467;-76
2023/08/22 07:11:10;;;;;;;8.73;5.97;;;23.80;99.90;;;;;;5083951;28;20440;-77
2023/08/22 07:13:37;;;;;;;9.50;5.50;;;23.70;99.90;;;;;;5079705;28;20563;-78
2023/08/22 07:16:05;;;;;;;6.43;5.83;;;24.10;99.90;;;;;;5080237;28;20535;-85
2023/08/22 07:18:31;;;;;;;9.63;5.27;;;24.30;99.90;;;;;;5072524;28;20919;-77
2023/08/22 07:21:05;;;;;;;7.83;6.53;;;24.30;99.90;;;;;;5082712;28;20448;-78
2023/08/22 07:23:32;;;;;;;6.60;5.50;;;24.30;99.90;;;;;;5074456;28;20492;-77
2023/08/22 07:26:00;;;;;;;8.10;6.70;;;24.20;99.90;;;;;;5080880;28;20517;-78
2023/08/22 07:28:27;;;;;;;6.43;5.37;;;24.50;99.90;;;;;;5079982;28;20582;-78
2023/08/22 07:30:54;;;;;;;6.77;5.37;;;24.60;99.90;;;;;;5077334;28;20471;-78
2023/08/22 07:33:21;;;;;;;6.47;5.87;;;24.60;99.90;;;;;;5073042;28;21330;-79
2023/08/22 07:35:48;;;;;;;8.47;5.27;;;24.70;99.90;;;;;;5069627;28;20468;-80
2023/08/22 07:38:17;;;;;;;8.47;4.70;;;24.70;99.90;;;;;;5083327;28;20459;-78
2023/08/22 07:40:44;;;;;;;7.90;6.23;;;24.80;99.90;;;;;;5076941;28;20516;-80
2023/08/22 07:43:12;;;;;;;10.40;6.33;;;25.00;99.90;;;;;;5084840;28;20446;-79
2023/08/22 07:45:39;;;;;;;14.13;6.30;;;25.20;99.90;;;;;;5071752;28;20470;-77
2023/08/22 07:48:06;;;;;;;7.63;5.37;;;25.20;99.90;;;;;;5082090;28;21206;-79
2023/08/22 07:50:34;;;;;;;6.97;6.40;;;25.10;99.90;;;;;;5078528;28;20954;-78
2023/08/22 07:53:00;;;;;;;6.13;5.53;;;25.40;99.90;;;;;;5088410;28;20478;-78
2023/08/22 07:55:29;;;;;;;7.40;5.60;;;25.40;99.90;;;;;;5079951;28;20464;-78
2023/08/22 07:57:56;;;;;;;5.60;5.10;;;25.60;99.90;;;;;;5089000;28;20538;-78
2023/08/22 08:00:23;;;;;;;5.63;5.20;;;25.50;99.90;;;;;;5079241;28;20491;-78
2023/08/22 08:02:52;;;;;;;5.67;5.27;;;25.60;99.90;;;;;;5088871;28;20507;-79
2023/08/22 08:05:19;;;;;;;7.67;5.73;;;25.90;99.90;;;;;;5082643;28;20470;-80
2023/08/22 08:07:46;;;;;;;14.50;8.20;;;26.10;99.90;;;;;;5086172;28;21157;-78
2023/08/22 08:10:15;;;;;;;5.77;5.37;;;26.10;99.90;;;;;;5074913;28;20528;-77
2023/08/22 08:12:43;;;;;;;7.23;5.10;;;26.10;99.90;;;;;;5083993;28;20494;-78
2023/08/22 08:15:10;;;;;;;14.03;5.70;;;26.10;99.90;;;;;;5088373;28;20471;-79
2023/08/22 08:17:37;;;;;;;7.20;6.47;;;26.10;99.90;;;;;;5085448;28;20443;-78
2023/08/22 08:20:06;;;;;;;8.13;4.90;;;26.30;99.90;;;;;;5080852;28;21146;-79
2023/08/22 08:22:33;;;;;;;4.70;4.30;;;26.50;99.60;;;;;;5090568;28;20459;-77
2023/08/22 08:25:02;;;;;;;6.60;6.10;;;26.30;99.80;;;;;;5081237;28;20834;-78
2023/08/22 08:27:29;;;;;;;6.30;5.30;;;26.60;99.90;;;;;;5088759;28;20443;-78
2023/08/22 08:29:58;;;;;;;6.27;5.43;;;26.40;99.90;;;;;;5077682;28;20466;-79
2023/08/22 08:32:25;;;;;;;9.13;6.43;;;26.60;99.80;;;;;;5088549;28;20448;-77
2023/08/22 08:34:52;;;;;;;9.10;6.00;;;26.90;99.90;;;;;;5079949;28;20516;-79
2023/08/22 08:37:20;;;;;;;5.87;5.40;;;26.80;99.50;;;;;;5084534;28;20435;-79
2023/08/22 08:39:47;;;;;;;5.93;5.43;;;26.90;99.00;;;;;;5079505;28;20464;-80
2023/08/22 08:42:16;;;;;;;5.93;5.23;;;26.80;99.50;;;;;;5088851;28;20493;-77
2023/08/22 08:44:43;;;;;;;6.37;5.87;;;27.10;98.60;;;;;;5080962;28;20463;-79
2023/08/22 08:47:12;;;;;;;8.13;7.33;;;27.30;98.00;;;;;;5078391;28;20470;-77
2023/08/22 08:49:39;;;;;;;6.50;5.93;;;27.40;98.50;;;;;;5084431;28;20551;-77
2023/08/22 08:52:08;;;;;;;9.30;6.10;;;27.50;99.80;;;;;;5088951;28;20504;-78
2023/08/22 08:54:36;;;;;;;5.73;5.23;;;27.30;97.20;;;;;;5080108;28;20489;-77
2023/08/22 08:57:03;;;;;;;6.23;5.73;;;27.40;97.30;;;;;;5078761;28;20443;-78
2023/08/22 08:59:31;;;;;;;5.40;4.93;;;27.30;98.40;;;;;;5080018;28;20443;-80
2023/08/22 09:01:59;;;;;;;6.70;6.07;;;27.40;99.20;;;;;;5081680;28;20930;-77
2023/08/22 09:04:28;;;;;;;6.00;4.70;;;27.70;96.60;;;;;;5086622;28;20499;-79
2023/08/22 09:06:54;;;;;;;6.60;5.97;;;27.90;94.60;;;;;;5080343;28;20480;-78
2023/08/22 09:09:24;;;;;;;5.93;5.43;;;27.90;96.40;;;;;;5086690;28;20487;-79
2023/08/22 09:11:51;;;;;;;5.37;4.70;;;27.70;95.60;;;;;;5080389;28;20469;-80
2023/08/22 09:14:21;;;;;;;4.70;4.40;;;27.70;95.40;;;;;;5088023;28;20482;-79
2023/08/22 09:16:49;;;;;;;6.07;4.90;;;27.90;95.50;;;;;;5082910;28;20461;-78
2023/08/22 09:19:16;;;;;;;5.47;4.97;;;28.00;93.40;;;;;;5079551;28;20859;-78
2023/08/22 09:21:58;;;;;;;5.33;4.87;;;28.40;92.10;;;;;;5086499;28;20503;-78
2023/08/22 09:24:26;;;;;;;5.77;5.27;;;28.50;93.20;;;;;;5081369;28;20493;-78
2023/08/22 09:26:54;;;;;;;6.20;4.93;;;28.90;93.00;;;;;;5079890;28;20474;-78
2023/08/22 09:29:27;;;;;;;6.63;4.97;;;29.20;94.00;;;;;;5087041;28;20496;-77
2023/08/22 09:31:58;;;;;;;5.33;4.77;;;29.00;91.60;;;;;;5070840;28;20547;-78
2023/08/22 09:34:25;;;;;;;12.00;5.10;;;29.10;92.90;;;;;;5079759;28;21031;-77
2023/08/22 09:36:54;;;;;;;6.10;4.70;;;29.20;91.60;;;;;;5076879;28;20440;-78
2023/08/22 09:39:25;;;;;;;5.50;5.00;;;29.30;92.80;;;;;;5073052;28;20554;-79
2023/08/22 09:41:54;;;;;;;5.27;4.87;;;29.30;90.50;;;;;;5066056;28;20452;-78
2023/08/22 09:44:24;;;;;;;5.20;4.70;;;29.30;91.20;;;;;;5069295;28;20471;-79
2023/08/22 09:46:52;;;;;;;5.87;5.27;;;29.70;93.80;;;;;;5071811;28;20443;-78
2023/08/22 09:49:19;;;;;;;5.40;4.90;;;29.90;93.50;;;;;;5082008;28;20478;-79
2023/08/22 09:51:48;;;;;;;6.17;5.67;;;30.10;92.80;;;;;;5086597;28;20526;-77
2023/08/22 09:54:16;;;;;;;5.20;4.80;;;30.10;91.70;;;;;;5078462;28;20555;-79
2023/08/22 09:56:45;;;;;;;11.10;5.40;;;29.90;93.90;;;;;;5082322;28;20863;-78
2023/08/22 09:59:13;;;;;;;4.60;4.30;;;30.00;91.80;;;;;;5070816;28;21076;-78
2023/08/22 10:01:42;;;;;;;6.23;5.63;;;30.30;91.40;;;;;;5083163;28;20481;-78
2023/08/22 10:04:09;;;;;;;5.37;4.97;;;30.30;90.40;;;;;;5077909;28;20607;-78
2023/08/22 10:06:38;;;;;;;5.90;5.50;;;29.90;92.00;;;;;;5082310;28;20458;-79
2023/08/22 10:09:08;;;;;;;6.40;5.00;;;30.40;93.00;;;;;;5077872;28;20867;-80
2023/08/22 10:11:41;;;;;;;6.03;5.47;;;30.40;90.70;;;;;;5085404;28;20447;-77
2023/08/22 10:14:13;;;;;;;5.80;5.40;;;30.50;90.70;;;;;;5080589;28;21111;-80
2023/08/22 10:16:40;;;;;;;5.30;4.87;;;30.50;89.30;;;;;;5082553;28;20460;-77
2023/08/22 10:19:08;;;;;;;7.43;4.97;;;30.10;90.00;;;;;;5076212;28;21051;-78
2023/08/22 10:21:42;;;;;;;5.77;5.30;;;30.20;92.90;;;;;;5084376;28;20883;-78
2023/08/22 10:24:21;;;;;;;6.83;6.17;;;30.40;92.50;;;;;;5082818;28;20499;-77
2023/08/22 10:26:50;;;;;;;12.07;5.37;;;30.40;91.10;;;;;;5069856;28;20970;-79
2023/08/22 10:29:19;;;;;;;7.30;4.63;;;30.50;91.60;;;;;;5074027;28;20464;-77
2023/08/22 10:32:17;;;;;;;5.17;4.77;;;30.50;88.70;;;;;;5086205;28;20439;-78
2023/08/22 10:35:07;;;;;;;6.90;5.13;;;30.50;91.90;;;;;;5078828;28;20488;-80
2023/08/22 10:37:44;;;;;;;8.70;4.57;;;30.70;88.60;;;;;;5076507;28;21046;-77
2023/08/22 10:40:21;;;;;;;5.60;5.20;;;30.70;85.90;;;;;;5077169;28;20496;-79
2023/08/22 10:42:52;;;;;;;5.53;5.13;;;31.00;88.10;;;;;;5086378;28;20440;-76
2023/08/22 10:45:20;;;;;;;5.07;4.70;;;30.80;84.80;;;;;;5075140;28;20543;-77
2023/08/22 10:48:05;;;;;;;4.80;4.40;;;31.10;90.30;;;;;;5084278;28;20716;-77
2023/08/22 10:50:33;;;;;;;7.30;4.93;;;31.20;88.80;;;;;;5073950;28;20452;-78
2023/08/22 10:53:12;;;;;;;5.70;5.20;;;31.10;88.10;;;;;;5072984;28;20443;-80
2023/08/22 10:55:39;;;;;;;7.47;4.97;;;31.30;87.30;;;;;;5078446;28;21197;-79
2023/08/22 10:58:08;;;;;;;5.97;5.47;;;31.30;82.00;;;;;;5076474;28;20522;-79
2023/08/22 11:00:36;;;;;;;6.30;5.67;;;31.20;82.70;;;;;;5069007;28;20483;-80
2023/08/22 11:03:04;;;;;;;6.53;5.90;;;31.30;85.00;;;;;;5075424;28;20447;-80
2023/08/22 11:05:31;;;;;;;5.77;5.37;;;31.30;83.40;;;;;;5077863;28;20467;-80
2023/08/22 11:07:57;;;;;;;5.77;5.27;;;31.10;85.00;;;;;;5067663;28;20460;-81
2023/08/22 11:10:26;;;;;;;6.23;5.80;;;31.20;83.50;;;;;;5068506;28;20443;-79
2023/08/22 11:12:56;;;;;;;6.83;6.30;;;31.30;83.90;;;;;;5071610;28;21230;-80
2023/08/22 11:15:23;;;;;;;6.93;6.30;;;31.40;83.50;;;;;;5069403;28;20483;-82
2023/08/22 11:17:51;;;;;;;5.33;4.93;;;31.80;88.10;;;;;;5068848;28;21057;-80
2023/08/22 11:20:21;;;;;;;5.73;5.23;;;31.80;88.20;;;;;;5073278;28;20439;-79
2023/08/22 11:22:48;;;;;;;6.43;5.83;;;31.90;81.00;;;;;;5072271;28;20491;-80
2023/08/22 11:25:22;;;;;;;7.47;6.77;;;31.90;83.20;;;;;;5080373;28;20479;-80
2023/08/22 11:27:49;;;;;;;11.43;5.57;;;31.90;87.10;;;;;;5079739;28;20539;-79
2023/08/22 11:30:19;;;;;;;6.57;4.73;;;32.10;84.50;;;;;;5078572;28;20519;-79
2023/08/22 11:32:46;;;;;;;5.67;5.17;;;32.20;80.80;;;;;;5070478;28;20550;-79
2023/08/22 11:35:14;;;;;;;6.00;5.50;;;32.00;81.80;;;;;;5084691;28;20490;-80
2023/08/22 11:37:43;;;;;;;6.10;5.47;;;32.00;80.60;;;;;;5076315;28;21124;-81
2023/08/22 11:40:14;;;;;;;4.70;4.30;;;32.10;80.30;;;;;;5068098;28;20540;-77
2023/08/22 11:42:41;;;;;;;5.20;4.90;;;32.30;80.70;;;;;;5080352;28;21175;-79
2023/08/22 11:45:09;;;;;;;5.53;5.03;;;32.30;80.60;;;;;;5073457;28;20495;-81
2023/08/22 11:47:38;;;;;;;5.17;4.77;;;32.20;84.50;;;;;;5074484;28;20462;-79
2023/08/22 11:50:06;;;;;;;5.53;5.13;;;32.10;78.40;;;;;;5085558;28;20500;-79
2023/08/22 11:52:34;;;;;;;4.60;4.30;;;32.20;79.80;;;;;;5080352;28;20581;-81
2023/08/22 11:55:06;;;;;;;6.30;5.40;;;32.30;79.50;;;;;;5075138;28;20980;-78
2023/08/22 11:57:35;;;;;;;4.97;4.57;;;32.30;78.50;;;;;;5083235;28;20463;-80
2023/08/22 12:00:03;;;;;;;5.97;5.47;;;32.50;79.50;;;;;;5085792;28;20583;-79
2023/08/22 12:02:30;;;;;;;4.97;4.47;;;32.50;77.10;;;;;;5072689;28;20470;-78
2023/08/22 12:04:57;;;;;;;10.43;5.30;;;32.70;76.70;;;;;;5073525;28;20443;-80
2023/08/22 12:07:24;;;;;;;4.80;4.40;;;32.80;80.60;;;;;;5075193;28;20505;-79
2023/08/22 12:10:05;;;;;;;5.80;4.97;;;32.70;77.30;;;;;;5079423;28;20502;-82
2023/08/22 12:12:32;;;;;;;5.53;5.03;;;32.80;81.40;;;;;;5069861;28;20460;-78
2023/08/22 12:15:00;;;;;;;14.30;8.43;;;32.90;78.10;;;;;;5069304;28;20491;-79
2023/08/22 12:17:27;;;;;;;4.97;4.40;;;32.80;74.70;;;;;;5074368;28;20975;-80
2023/08/22 12:19:54;;;;;;;5.10;4.10;;;33.10;72.30;;;;;;5073553;28;20525;-77
2023/08/22 12:22:21;;;;;;;3.93;3.53;;;33.10;72.80;;;;;;5076266;28;20578;-77
2023/08/22 12:24:49;;;;;;;8.27;3.77;;;32.90;70.10;;;;;;5073005;28;20535;-76
2023/08/22 12:27:18;;;;;;;5.47;4.90;;;32.70;64.90;;;;;;5081609;28;20998;-77
2023/08/22 12:29:46;;;;;;;3.30;3.00;;;32.80;71.30;;;;;;5077654;28;21237;-78
2023/08/22 12:32:12;;;;;;;3.97;2.90;;;33.00;67.80;;;;;;5071762;28;20463;-78
2023/08/22 12:34:39;;;;;;;2.70;2.50;;;32.90;64.50;;;;;;5072216;28;20487;-76
2023/08/22 12:37:06;;;;;;;3.73;3.40;;;33.00;67.00;;;;;;5072282;28;20534;-78
2023/08/22 12:39:33;;;;;;;3.40;3.20;;;33.00;68.10;;;;;;5071600;28;21177;-76
2023/08/22 12:42:00;;;;;;;4.20;3.17;;;33.10;67.60;;;;;;5072354;28;20526;-77
2023/08/22 12:44:29;;;;;;;6.20;3.33;;;33.20;65.30;;;;;;5068045;28;20463;-77
2023/08/22 12:46:58;;;;;;;3.83;3.47;;;33.40;61.30;;;;;;5083765;28;20445;-78
2023/08/22 12:49:25;;;;;;;6.10;4.47;;;33.60;63.00;;;;;;5086332;28;20453;-78